sensor_id;sensor_type;location;lat;lon;timestamp;temperature;humidity
25937;DHT22;13733;51.178;4.450;2023-02-28T00:00:26;2.10;99.90
25937;DHT22;13733;51.178;4.450;2023-02-28T00:02:53;2.10;99.90
25937;DHT22;13733;51.178;4.450;2023-02-28T00:05:21;2.10;99.90
25937;DHT22;13733;51.178;4.450;2023-02-28T00:07:48;2.10;99.90
25937;DHT22;13733;51.178;4.450;2023-02-28T00:10:18;2.10;99.90
25937;DHT22;13733;51.178;4.450;2023-02-28T00:12:59;2.00;99.90
25937;DHT22;13733;51.178;4.450;2023-02-28T00:15:25;2.00;99.90
25937;DHT22;13733;51.178;4.450;2023-02-28T00:17:51;2.00;99.90
25937;DHT22;13733;51.178;4.450;2023-02-28T00:20:17;2.00;99.90
25937;DHT22;13733;51.178;4.450;2023-02-28T00:22:47;2.00;99.90
25937;DHT22;13733;51.178;4.450;2023-02-28T00:25:15;2.00;99.90
25937;DHT22;13733;51.178;4.450;2023-02-28T00:27:42;2.00;99.90
25937;DHT22;13733;51.178;4.450;2023-02-28T00:30:11;2.00;99.90
25937;DHT22;13733;51.178;4.450;2023-02-28T00:32:37;2.00;99.90
25937;DHT22;13733;51.178;4.450;2023-02-28T00:35:04;2.00;99.90
25937;DHT22;13733;51.178;4.450;2023-02-28T00:37:30;1.90;99.90
25937;DHT22;13733;51.178;4.450;2023-02-28T00:39:56;2.00;99.90
25937;DHT22;13733;51.178;4.450;2023-02-28T00:42:22;1.90;99.90
25937;DHT22;13733;51.178;4.450;2023-02-28T00:44:47;1.90;99.90
25937;DHT22;13733;51.178;4.450;2023-02-28T00:47:13;1.90;99.90
25937;DHT22;13733;51.178;4.450;2023-02-28T00:49:40;1.90;99.90
25937;DHT22;13733;51.178;4.450;2023-02-28T00:52:08;1.90;99.90
25937;DHT22;13733;51.178;4.450;2023-02-28T00:54:34;1.90;99.90
25937;DHT22;13733;51.178;4.450;2023-02-28T00:57:01;1.90;99.90
25937;DHT22;13733;51.178;4.450;2023-02-28T00:59:27;1.90;99.90
25937;DHT22;13733;51.178;4.450;2023-02-28T01:01:53;1.80;99.90
25937;DHT22;13733;51.178;4.450;2023-02-28T01:04:21;1.80;99.90
25937;DHT22;13733;51.178;4.450;2023-02-28T01:06:47;1.80;99.90
25937;DHT22;13733;51.178;4.450;2023-02-28T01:09:13;1.80;99.90
25937;DHT22;13733;51.178;4.450;2023-02-28T01:11:41;1.80;99.90
25937;DHT22;13733;51.178;4.450;2023-02-28T01:14:12;1.70;99.90
25937;DHT22;13733;51.178;4.450;2023-02-28T01:16:39;1.70;99.90
25937;DHT22;13733;51.178;4.450;2023-02-28T01:19:08;1.70;99.90
25937;DHT22;13733;51.178;4.450;2023-02-28T01:21:34;1.60;99.90
25937;DHT22;13733;51.178;4.450;2023-02-28T01:24:00;1.60;99.90
25937;DHT22;13733;51.178;4.450;2023-02-28T01:26:26;1.60;99.90
25937;DHT22;13733;51.178;4.450;2023-02-28T01:28:52;1.50;99.90
25937;DHT22;13733;51.178;4.450;2023-02-28T01:31:19;1.60;99.90
25937;DHT22;13733;51.178;4.450;2023-02-28T01:33:45;1.60;99.90
25937;DHT22;13733;51.178;4.450;2023-02-28T01:36:22;1.50;99.90
25937;DHT22;13733;51.178;4.450;2023-02-28T01:38:51;1.50;99.90
25937;DHT22;13733;51.178;4.450;2023-02-28T01:41:28;1.50;99.90
25937;DHT22;13733;51.178;4.450;2023-02-28T01:44:07;1.50;99.90
25937;DHT22;13733;51.178;4.450;2023-02-28T01:46:51;1.50;99.90
25937;DHT22;13733;51.178;4.450;2023-02-28T01:49:18;1.50;99.90
25937;DHT22;13733;51.178;4.450;2023-02-28T01:51:54;1.50;99.90
25937;DHT22;13733;51.178;4.450;2023-02-28T01:54:24;1.50;99.90
25937;DHT22;13733;51.178;4.450;2023-02-28T01:57:06;1.40;99.90
25937;DHT22;13733;51.178;4.450;2023-02-28T01:59:38;1.30;99.90
25937;DHT22;13733;51.178;4.450;2023-02-28T02:02:11;1.40;99.90
25937;DHT22;13733;51.178;4.450;2023-02-28T02:04:42;1.40;99.90
25937;DHT22;13733;51.178;4.450;2023-02-28T02:07:11;1.40;99.90
25937;DHT22;13733;51.178;4.450;2023-02-28T02:09:38;1.40;99.90
25937;DHT22;13733;51.178;4.450;2023-02-28T02:12:26;1.30;99.90
25937;DHT22;13733;51.178;4.450;2023-02-28T02:14:58;1.30;99.90
25937;DHT22;13733;51.178;4.450;2023-02-28T02:17:38;1.30;99.90
25937;DHT22;13733;51.178;4.450;2023-02-28T02:34:25;1.20;99.90
25937;DHT22;13733;51.178;4.450;2023-02-28T02:36:59;1.20;99.90
25937;DHT22;13733;51.178;4.450;2023-02-28T02:40:27;1.20;99.90
25937;DHT22;13733;51.178;4.450;2023-02-28T02:42:54;1.10;99.90
25937;DHT22;13733;51.178;4.450;2023-02-28T02:45:27;1.10;99.90
25937;DHT22;13733;51.178;4.450;2023-02-28T02:48:02;1.10;99.90
25937;DHT22;13733;51.178;4.450;2023-02-28T02:50:33;1.10;99.90
25937;DHT22;13733;51.178;4.450;2023-02-28T02:53:02;1.10;99.90
25937;DHT22;13733;51.178;4.450;2023-02-28T02:55:32;1.10;99.90
25937;DHT22;13733;51.178;4.450;2023-02-28T02:58:07;1.10;99.90
25937;DHT22;13733;51.178;4.450;2023-02-28T03:00:37;1.10;99.90
25937;DHT22;13733;51.178;4.450;2023-02-28T03:03:07;1.10;99.90
25937;DHT22;13733;51.178;4.450;2023-02-28T03:05:49;1.10;99.90
25937;DHT22;13733;51.178;4.450;2023-02-28T03:08:15;1.10;99.90
25937;DHT22;13733;51.178;4.450;2023-02-28T03:10:44;1.00;99.90
25937;DHT22;13733;51.178;4.450;2023-02-28T03:18:36;1.00;99.90
25937;DHT22;13733;51.178;4.450;2023-02-28T03:21:21;1.00;99.90
25937;DHT22;13733;51.178;4.450;2023-02-28T03:24:11;1.00;99.90
25937;DHT22;13733;51.178;4.450;2023-02-28T03:26:43;1.00;99.90
25937;DHT22;13733;51.178;4.450;2023-02-28T03:29:23;1.10;99.90
25937;DHT22;13733;51.178;4.450;2023-02-28T03:31:58;1.10;99.90
25937;DHT22;13733;51.178;4.450;2023-02-28T03:36:59;1.10;99.90
25937;DHT22;13733;51.178;4.450;2023-02-28T03:39:31;1.10;99.90
25937;DHT22;13733;51.178;4.450;2023-02-28T03:42:01;1.20;99.90
25937;DHT22;13733;51.178;4.450;2023-02-28T03:44:41;1.20;99.90
25937;DHT22;13733;51.178;4.450;2023-02-28T03:47:12;1.20;99.90
25937;DHT22;13733;51.178;4.450;2023-02-28T03:49:48;1.30;99.90
25937;DHT22;13733;51.178;4.450;2023-02-28T03:52:14;1.30;99.90
25937;DHT22;13733;51.178;4.450;2023-02-28T03:54:45;1.30;99.90
25937;DHT22;13733;51.178;4.450;2023-02-28T03:57:37;1.30;99.90
25937;DHT22;13733;51.178;4.450;2023-02-28T04:00:33;1.30;99.90
25937;DHT22;13733;51.178;4.450;2023-02-28T04:02:59;1.40;99.90
25937;DHT22;13733;51.178;4.450;2023-02-28T04:05:25;1.50;99.90
25937;DHT22;13733;51.178;4.450;2023-02-28T04:07:54;1.60;99.90
25937;DHT22;13733;51.178;4.450;2023-02-28T04:10:20;1.70;99.90
25937;DHT22;13733;51.178;4.450;2023-02-28T04:12:45;1.70;99.90
25937;DHT22;13733;51.178;4.450;2023-02-28T04:15:11;1.80;99.90
25937;DHT22;13733;51.178;4.450;2023-02-28T04:17:37;1.80;99.90
25937;DHT22;13733;51.178;4.450;2023-02-28T04:20:04;1.90;99.90
25937;DHT22;13733;51.178;4.450;2023-02-28T04:22:34;1.80;99.90
25937;DHT22;13733;51.178;4.450;2023-02-28T04:25:00;1.80;99.90
25937;DHT22;13733;51.178;4.450;2023-02-28T04:27:26;1.90;99.90
25937;DHT22;13733;51.178;4.450;2023-02-28T04:29:51;1.90;99.90
25937;DHT22;13733;51.178;4.450;2023-02-28T04:32:17;1.90;99.90
25937;DHT22;13733;51.178;4.450;2023-02-28T04:34:42;2.00;99.90
25937;DHT22;13733;51.178;4.450;2023-02-28T04:37:08;2.10;99.90
25937;DHT22;13733;51.178;4.450;2023-02-28T04:39:36;2.20;99.90
25937;DHT22;13733;51.178;4.450;2023-02-28T04:42:02;2.20;99.90
25937;DHT22;13733;51.178;4.450;2023-02-28T04:44:28;2.20;99.90
25937;DHT22;13733;51.178;4.450;2023-02-28T04:46:54;2.20;99.90
25937;DHT22;13733;51.178;4.450;2023-02-28T04:49:19;2.30;99.90
25937;DHT22;13733;51.178;4.450;2023-02-28T04:51:45;2.30;99.90
25937;DHT22;13733;51.178;4.450;2023-02-28T04:54:11;2.40;99.90
25937;DHT22;13733;51.178;4.450;2023-02-28T04:56:37;2.40;99.90
25937;DHT22;13733;51.178;4.450;2023-02-28T04:59:02;2.40;99.90
25937;DHT22;13733;51.178;4.450;2023-02-28T05:01:32;2.50;99.90
25937;DHT22;13733;51.178;4.450;2023-02-28T05:03:59;2.60;99.90
25937;DHT22;13733;51.178;4.450;2023-02-28T05:06:27;2.50;99.90
25937;DHT22;13733;51.178;4.450;2023-02-28T05:08:54;2.50;99.90
25937;DHT22;13733;51.178;4.450;2023-02-28T05:11:28;2.50;99.90
25937;DHT22;13733;51.178;4.450;2023-02-28T05:13:55;2.60;99.90
25937;DHT22;13733;51.178;4.450;2023-02-28T05:16:21;2.60;99.90
25937;DHT22;13733;51.178;4.450;2023-02-28T05:18:48;2.70;99.90
25937;DHT22;13733;51.178;4.450;2023-02-28T05:23:53;2.70;99.90
25937;DHT22;13733;51.178;4.450;2023-02-28T05:26:19;2.70;99.90
25937;DHT22;13733;51.178;4.450;2023-02-28T05:28:45;2.60;99.90
25937;DHT22;13733;51.178;4.450;2023-02-28T05:31:11;2.60;99.90
25937;DHT22;13733;51.178;4.450;2023-02-28T05:33:38;2.60;99.90
25937;DHT22;13733;51.178;4.450;2023-02-28T05:36:04;2.60;99.90
25937;DHT22;13733;51.178;4.450;2023-02-28T05:38:30;2.60;99.90
25937;DHT22;13733;51.178;4.450;2023-02-28T05:40:55;2.60;99.90
25937;DHT22;13733;51.178;4.450;2023-02-28T05:43:22;2.70;99.90
25937;DHT22;13733;51.178;4.450;2023-02-28T05:45:48;2.70;99.90
25937;DHT22;13733;51.178;4.450;2023-02-28T05:48:14;2.80;99.90
25937;DHT22;13733;51.178;4.450;2023-02-28T05:50:40;2.80;99.90
25937;DHT22;13733;51.178;4.450;2023-02-28T05:53:07;2.80;99.90
25937;DHT22;13733;51.178;4.450;2023-02-28T05:55:33;2.80;99.90
25937;DHT22;13733;51.178;4.450;2023-02-28T05:58:01;2.80;99.90
25937;DHT22;13733;51.178;4.450;2023-02-28T06:00:28;2.70;99.90
25937;DHT22;13733;51.178;4.450;2023-02-28T06:02:54;2.70;99.90
25937;DHT22;13733;51.178;4.450;2023-02-28T06:05:22;2.70;99.90
25937;DHT22;13733;51.178;4.450;2023-02-28T06:07:48;2.70;99.90
25937;DHT22;13733;51.178;4.450;2023-02-28T06:10:14;2.80;99.90
25937;DHT22;13733;51.178;4.450;2023-02-28T06:12:40;2.70;99.90
25937;DHT22;13733;51.178;4.450;2023-02-28T06:15:13;2.80;99.90
25937;DHT22;13733;51.178;4.450;2023-02-28T06:17:41;2.80;99.90
25937;DHT22;13733;51.178;4.450;2023-02-28T06:20:08;2.80;99.90
25937;DHT22;13733;51.178;4.450;2023-02-28T06:22:35;2.80;99.90
25937;DHT22;13733;51.178;4.450;2023-02-28T06:25:02;2.90;99.90
25937;DHT22;13733;51.178;4.450;2023-02-28T06:27:27;2.90;99.90
25937;DHT22;13733;51.178;4.450;2023-02-28T06:29:54;2.90;99.90
25937;DHT22;13733;51.178;4.450;2023-02-28T06:32:21;2.90;99.90
25937;DHT22;13733;51.178;4.450;2023-02-28T06:34:47;3.00;99.90
25937;DHT22;13733;51.178;4.450;2023-02-28T06:37:13;3.10;99.90
25937;DHT22;13733;51.178;4.450;2023-02-28T06:39:39;3.10;99.90
25937;DHT22;13733;51.178;4.450;2023-02-28T06:42:05;3.10;99.90
25937;DHT22;13733;51.178;4.450;2023-02-28T06:44:31;3.00;99.90
25937;DHT22;13733;51.178;4.450;2023-02-28T06:47:05;3.00;99.90
25937;DHT22;13733;51.178;4.450;2023-02-28T06:49:32;3.10;99.90
25937;DHT22;13733;51.178;4.450;2023-02-28T06:51:57;3.10;99.90
25937;DHT22;13733;51.178;4.450;2023-02-28T06:54:23;3.20;99.90
25937;DHT22;13733;51.178;4.450;2023-02-28T06:56:49;3.20;99.90
25937;DHT22;13733;51.178;4.450;2023-02-28T06:59:16;3.20;99.90
25937;DHT22;13733;51.178;4.450;2023-02-28T07:01:43;3.20;99.90
25937;DHT22;13733;51.178;4.450;2023-02-28T07:04:09;3.20;99.90
25937;DHT22;13733;51.178;4.450;2023-02-28T07:06:35;3.30;99.90
25937;DHT22;13733;51.178;4.450;2023-02-28T07:09:00;3.20;99.90
25937;DHT22;13733;51.178;4.450;2023-02-28T07:11:27;3.20;99.90
25937;DHT22;13733;51.178;4.450;2023-02-28T07:13:56;3.30;99.90
25937;DHT22;13733;51.178;4.450;2023-02-28T07:16:24;3.40;99.90
25937;DHT22;13733;51.178;4.450;2023-02-28T07:18:52;3.50;99.90
25937;DHT22;13733;51.178;4.450;2023-02-28T07:21:18;3.50;99.90
25937;DHT22;13733;51.178;4.450;2023-02-28T07:23:44;3.60;99.90
25937;DHT22;13733;51.178;4.450;2023-02-28T07:26:15;3.60;99.90
25937;DHT22;13733;51.178;4.450;2023-02-28T07:28:43;3.70;99.90
25937;DHT22;13733;51.178;4.450;2023-02-28T07:31:10;3.70;99.90
25937;DHT22;13733;51.178;4.450;2023-02-28T07:33:36;3.70;99.90
25937;DHT22;13733;51.178;4.450;2023-02-28T07:36:28;3.80;99.90
25937;DHT22;13733;51.178;4.450;2023-02-28T07:38:54;3.90;99.90
25937;DHT22;13733;51.178;4.450;2023-02-28T07:41:21;4.10;99.90
25937;DHT22;13733;51.178;4.450;2023-02-28T07:43:48;4.10;99.90
25937;DHT22;13733;51.178;4.450;2023-02-28T07:46:15;4.20;99.90
25937;DHT22;13733;51.178;4.450;2023-02-28T07:48:43;4.30;99.90
25937;DHT22;13733;51.178;4.450;2023-02-28T07:51:09;4.40;99.90
25937;DHT22;13733;51.178;4.450;2023-02-28T07:53:34;4.40;99.90
25937;DHT22;13733;51.178;4.450;2023-02-28T07:56:02;4.50;99.90
25937;DHT22;13733;51.178;4.450;2023-02-28T07:58:30;4.50;99.90
25937;DHT22;13733;51.178;4.450;2023-02-28T08:00:56;4.50;99.90
25937;DHT22;13733;51.178;4.450;2023-02-28T08:03:23;4.60;99.90
25937;DHT22;13733;51.178;4.450;2023-02-28T08:05:49;4.60;99.90
25937;DHT22;13733;51.178;4.450;2023-02-28T08:08:16;4.70;99.90
25937;DHT22;13733;51.178;4.450;2023-02-28T08:10:42;4.80;99.90
25937;DHT22;13733;51.178;4.450;2023-02-28T08:13:08;4.80;99.90
25937;DHT22;13733;51.178;4.450;2023-02-28T08:15:33;4.90;99.90
25937;DHT22;13733;51.178;4.450;2023-02-28T08:17:59;4.90;99.90
25937;DHT22;13733;51.178;4.450;2023-02-28T08:20:26;5.10;99.90
25937;DHT22;13733;51.178;4.450;2023-02-28T08:22:52;5.20;99.90
25937;DHT22;13733;51.178;4.450;2023-02-28T08:25:18;5.10;99.90
25937;DHT22;13733;51.178;4.450;2023-02-28T08:27:44;5.20;99.90
25937;DHT22;13733;51.178;4.450;2023-02-28T08:30:11;5.20;99.90
25937;DHT22;13733;51.178;4.450;2023-02-28T08:32:38;5.30;99.90
25937;DHT22;13733;51.178;4.450;2023-02-28T08:35:04;5.20;99.90
25937;DHT22;13733;51.178;4.450;2023-02-28T08:37:29;5.20;99.90
25937;DHT22;13733;51.178;4.450;2023-02-28T08:39:56;5.10;99.90
25937;DHT22;13733;51.178;4.450;2023-02-28T08:42:23;5.20;99.90
25937;DHT22;13733;51.178;4.450;2023-02-28T08:44:49;5.10;99.90
25937;DHT22;13733;51.178;4.450;2023-02-28T08:47:15;5.30;99.90
25937;DHT22;13733;51.178;4.450;2023-02-28T08:49:41;5.40;99.90
25937;DHT22;13733;51.178;4.450;2023-02-28T08:52:06;5.50;99.90
25937;DHT22;13733;51.178;4.450;2023-02-28T08:54:32;5.50;99.90
25937;DHT22;13733;51.178;4.450;2023-02-28T08:56:59;5.60;99.90
25937;DHT22;13733;51.178;4.450;2023-02-28T08:59:25;5.60;99.90
25937;DHT22;13733;51.178;4.450;2023-02-28T09:01:51;5.70;99.90
25937;DHT22;13733;51.178;4.450;2023-02-28T09:04:16;5.80;99.90
25937;DHT22;13733;51.178;4.450;2023-02-28T09:06:42;5.90;99.90
25937;DHT22;13733;51.178;4.450;2023-02-28T09:09:07;6.00;99.90
25937;DHT22;13733;51.178;4.450;2023-02-28T09:11:35;6.10;99.90
25937;DHT22;13733;51.178;4.450;2023-02-28T09:14:01;6.10;99.90
25937;DHT22;13733;51.178;4.450;2023-02-28T09:16:29;6.10;99.90
25937;DHT22;13733;51.178;4.450;2023-02-28T09:18:55;6.00;99.90
25937;DHT22;13733;51.178;4.450;2023-02-28T09:21:21;5.90;99.90
25937;DHT22;13733;51.178;4.450;2023-02-28T09:23:48;5.90;99.90
25937;DHT22;13733;51.178;4.450;2023-02-28T09:28:41;5.60;99.90
25937;DHT22;13733;51.178;4.450;2023-02-28T09:31:10;5.70;99.90
25937;DHT22;13733;51.178;4.450;2023-02-28T09:33:36;5.80;99.90
25937;DHT22;13733;51.178;4.450;2023-02-28T09:36:03;5.80;99.90
25937;DHT22;13733;51.178;4.450;2023-02-28T09:38:30;5.90;99.90
25937;DHT22;13733;51.178;4.450;2023-02-28T09:41:00;6.00;99.90
25937;DHT22;13733;51.178;4.450;2023-02-28T09:43:29;6.10;99.90
25937;DHT22;13733;51.178;4.450;2023-02-28T09:46:10;6.10;99.60
25937;DHT22;13733;51.178;4.450;2023-02-28T09:48:42;6.10;94.80
25937;DHT22;13733;51.178;4.450;2023-02-28T09:51:34;6.10;92.90
25937;DHT22;13733;51.178;4.450;2023-02-28T09:54:03;6.20;92.00
25937;DHT22;13733;51.178;4.450;2023-02-28T09:56:36;6.20;91.30
25937;DHT22;13733;51.178;4.450;2023-02-28T10:01:57;6.60;90.20
25937;DHT22;13733;51.178;4.450;2023-02-28T10:04:43;6.60;85.10
25937;DHT22;13733;51.178;4.450;2023-02-28T10:07:45;6.70;84.00
25937;DHT22;13733;51.178;4.450;2023-02-28T10:10:46;6.90;81.00
25937;DHT22;13733;51.178;4.450;2023-02-28T10:19:06;7.10;77.00
25937;DHT22;13733;51.178;4.450;2023-02-28T10:21:47;6.90;75.90
25937;DHT22;13733;51.178;4.450;2023-02-28T10:27:24;6.80;75.40
25937;DHT22;13733;51.178;4.450;2023-02-28T10:29:52;6.80;73.80
25937;DHT22;13733;51.178;4.450;2023-02-28T10:32:33;6.90;72.70
25937;DHT22;13733;51.178;4.450;2023-02-28T10:37:33;6.80;73.60
25937;DHT22;13733;51.178;4.450;2023-02-28T10:40:04;6.80;74.30
25937;DHT22;13733;51.178;4.450;2023-02-28T10:42:31;7.10;73.50
25937;DHT22;13733;51.178;4.450;2023-02-28T10:45:13;7.30;70.20
25937;DHT22;13733;51.178;4.450;2023-02-28T10:47:51;7.50;68.00
25937;DHT22;13733;51.178;4.450;2023-02-28T10:52:53;7.90;65.40
25937;DHT22;13733;51.178;4.450;2023-02-28T10:55:24;8.10;62.50
25937;DHT22;13733;51.178;4.450;2023-02-28T10:57:51;8.00;61.00
25937;DHT22;13733;51.178;4.450;2023-02-28T11:00:23;8.20;62.30
25937;DHT22;13733;51.178;4.450;2023-02-28T11:02:51;8.50;59.80
25937;DHT22;13733;51.178;4.450;2023-02-28T11:05:35;8.70;58.60
25937;DHT22;13733;51.178;4.450;2023-02-28T11:08:15;8.70;57.60
25937;DHT22;13733;51.178;4.450;2023-02-28T11:10:54;8.80;55.50
25937;DHT22;13733;51.178;4.450;2023-02-28T11:13:26;9.00;55.60
25937;DHT22;13733;51.178;4.450;2023-02-28T11:15:57;9.20;53.30
25937;DHT22;13733;51.178;4.450;2023-02-28T11:18:26;9.20;50.40
25937;DHT22;13733;51.178;4.450;2023-02-28T11:20:55;9.20;49.80
25937;DHT22;13733;51.178;4.450;2023-02-28T11:23:25;9.20;49.90
25937;DHT22;13733;51.178;4.450;2023-02-28T11:25:55;9.30;50.00
25937;DHT22;13733;51.178;4.450;2023-02-28T11:28:30;9.40;49.70
25937;DHT22;13733;51.178;4.450;2023-02-28T11:33:44;9.20;47.20
25937;DHT22;13733;51.178;4.450;2023-02-28T11:36:17;9.40;47.40
25937;DHT22;13733;51.178;4.450;2023-02-28T11:38:43;9.70;47.60
25937;DHT22;13733;51.178;4.450;2023-02-28T11:41:40;9.50;47.70
25937;DHT22;13733;51.178;4.450;2023-02-28T11:47:03;10.30;48.10
25937;DHT22;13733;51.178;4.450;2023-02-28T12:05:34;12.40;38.70
25937;DHT22;13733;51.178;4.450;2023-02-28T12:13:26;13.60;37.40
25937;DHT22;13733;51.178;4.450;2023-02-28T12:16:11;13.40;35.60
25937;DHT22;13733;51.178;4.450;2023-02-28T12:22:03;13.60;36.10
25937;DHT22;13733;51.178;4.450;2023-02-28T12:24:40;13.90;35.00
25937;DHT22;13733;51.178;4.450;2023-02-28T12:27:12;14.30;34.40
25937;DHT22;13733;51.178;4.450;2023-02-28T12:32:32;14.90;33.30
25937;DHT22;13733;51.178;4.450;2023-02-28T12:35:21;14.40;31.10
25937;DHT22;13733;51.178;4.450;2023-02-28T12:38:01;14.40;32.80
25937;DHT22;13733;51.178;4.450;2023-02-28T12:40:41;15.00;32.00
25937;DHT22;13733;51.178;4.450;2023-02-28T12:43:09;15.10;32.00
25937;DHT22;13733;51.178;4.450;2023-02-28T12:46:14;15.00;30.70
25937;DHT22;13733;51.178;4.450;2023-02-28T12:48:57;15.10;30.80
25937;DHT22;13733;51.178;4.450;2023-02-28T12:51:25;15.20;30.60
25937;DHT22;13733;51.178;4.450;2023-02-28T12:56:43;16.00;29.50
25937;DHT22;13733;51.178;4.450;2023-02-28T13:05:32;16.90;28.80
25937;DHT22;13733;51.178;4.450;2023-02-28T13:09:21;17.10;28.10
25937;DHT22;13733;51.178;4.450;2023-02-28T13:14:16;16.00;28.40
25937;DHT22;13733;51.178;4.450;2023-02-28T13:19:59;16.80;28.30
25937;DHT22;13733;51.178;4.450;2023-02-28T13:24:56;16.90;28.30
25937;DHT22;13733;51.178;4.450;2023-02-28T13:27:53;16.90;28.50
25937;DHT22;13733;51.178;4.450;2023-02-28T13:33:29;17.90;26.90
25937;DHT22;13733;51.178;4.450;2023-02-28T13:38:54;17.70;26.60
25937;DHT22;13733;51.178;4.450;2023-02-28T13:49:25;18.30;26.50
25937;DHT22;13733;51.178;4.450;2023-02-28T13:55:14;19.60;25.90
25937;DHT22;13733;51.178;4.450;2023-02-28T13:58:08;20.40;24.60
25937;DHT22;13733;51.178;4.450;2023-02-28T14:06:28;18.90;25.10
25937;DHT22;13733;51.178;4.450;2023-02-28T14:09:24;18.80;25.40
25937;DHT22;13733;51.178;4.450;2023-02-28T14:11:51;19.80;25.20
25937;DHT22;13733;51.178;4.450;2023-02-28T14:17:06;19.80;24.20
25937;DHT22;13733;51.178;4.450;2023-02-28T14:19:37;20.00;24.70
25937;DHT22;13733;51.178;4.450;2023-02-28T14:38:27;19.90;24.90
25937;DHT22;13733;51.178;4.450;2023-02-28T14:40:57;19.80;24.80
25937;DHT22;13733;51.178;4.450;2023-02-28T14:43:28;19.90;24.70
25937;DHT22;13733;51.178;4.450;2023-02-28T14:45:55;19.80;25.20
25937;DHT22;13733;51.178;4.450;2023-02-28T14:48:23;19.50;25.20
25937;DHT22;13733;51.178;4.450;2023-02-28T14:50:56;19.40;25.20
25937;DHT22;13733;51.178;4.450;2023-02-28T14:53:27;19.10;24.60
25937;DHT22;13733;51.178;4.450;2023-02-28T14:55:54;19.20;25.60
25937;DHT22;13733;51.178;4.450;2023-02-28T15:00:49;19.30;25.00
25937;DHT22;13733;51.178;4.450;2023-02-28T15:03:36;20.30;25.20
25937;DHT22;13733;51.178;4.450;2023-02-28T15:06:16;20.40;24.10
25937;DHT22;13733;51.178;4.450;2023-02-28T15:08:42;20.60;24.00
25937;DHT22;13733;51.178;4.450;2023-02-28T15:11:19;20.40;24.10
25937;DHT22;13733;51.178;4.450;2023-02-28T15:13:50;20.00;24.30
25937;DHT22;13733;51.178;4.450;2023-02-28T15:16:32;19.70;25.10
25937;DHT22;13733;51.178;4.450;2023-02-28T15:19:01;19.70;24.70
25937;DHT22;13733;51.178;4.450;2023-02-28T15:21:31;19.50;25.80
25937;DHT22;13733;51.178;4.450;2023-02-28T15:24:07;19.90;24.70
25937;DHT22;13733;51.178;4.450;2023-02-28T15:26:37;19.80;24.80
25937;DHT22;13733;51.178;4.450;2023-02-28T15:29:11;20.60;23.80
25937;DHT22;13733;51.178;4.450;2023-02-28T15:31:44;20.30;24.20
25937;DHT22;13733;51.178;4.450;2023-02-28T15:34:28;19.70;24.30
25937;DHT22;13733;51.178;4.450;2023-02-28T15:36:58;19.50;24.60
25937;DHT22;13733;51.178;4.450;2023-02-28T15:39:26;20.10;25.40
25937;DHT22;13733;51.178;4.450;2023-02-28T15:42:13;20.00;24.70
25937;DHT22;13733;51.178;4.450;2023-02-28T15:44:44;20.00;24.60
25937;DHT22;13733;51.178;4.450;2023-02-28T15:47:19;20.20;24.60
25937;DHT22;13733;51.178;4.450;2023-02-28T15:52:38;19.80;24.80
25937;DHT22;13733;51.178;4.450;2023-02-28T15:57:44;19.40;25.30
25937;DHT22;13733;51.178;4.450;2023-02-28T16:00:14;19.50;25.00
25937;DHT22;13733;51.178;4.450;2023-02-28T16:02:40;18.90;25.10
25937;DHT22;13733;51.178;4.450;2023-02-28T16:07:40;18.90;25.30
25937;DHT22;13733;51.178;4.450;2023-02-28T16:10:10;18.80;26.10
25937;DHT22;13733;51.178;4.450;2023-02-28T16:12:38;18.80;25.80
25937;DHT22;13733;51.178;4.450;2023-02-28T16:15:17;18.90;26.00
25937;DHT22;13733;51.178;4.450;2023-02-28T16:17:43;19.30;26.00
25937;DHT22;13733;51.178;4.450;2023-02-28T16:20:15;18.70;26.00
25937;DHT22;13733;51.178;4.450;2023-02-28T16:22:42;17.20;27.60
25937;DHT22;13733;51.178;4.450;2023-02-28T16:25:14;15.80;28.70
25937;DHT22;13733;51.178;4.450;2023-02-28T16:27:41;14.30;29.80
25937;DHT22;13733;51.178;4.450;2023-02-28T16:30:19;13.30;31.50
25937;DHT22;13733;51.178;4.450;2023-02-28T16:32:45;12.60;32.90
25937;DHT22;13733;51.178;4.450;2023-02-28T16:35:11;12.00;33.90
25937;DHT22;13733;51.178;4.450;2023-02-28T16:37:39;11.50;35.10
25937;DHT22;13733;51.178;4.450;2023-02-28T16:40:07;10.90;36.30
25937;DHT22;13733;51.178;4.450;2023-02-28T16:42:37;10.60;37.70
25937;DHT22;13733;51.178;4.450;2023-02-28T16:45:04;10.30;39.00
25937;DHT22;13733;51.178;4.450;2023-02-28T16:47:30;10.20;39.30
25937;DHT22;13733;51.178;4.450;2023-02-28T16:49:58;9.90;40.00
25937;DHT22;13733;51.178;4.450;2023-02-28T16:52:23;9.70;40.40
25937;DHT22;13733;51.178;4.450;2023-02-28T16:54:49;9.60;40.90
25937;DHT22;13733;51.178;4.450;2023-02-28T16:57:21;9.20;41.50
25937;DHT22;13733;51.178;4.450;2023-02-28T16:59:49;8.90;42.40
25937;DHT22;13733;51.178;4.450;2023-02-28T17:02:18;9.00;43.70
25937;DHT22;13733;51.178;4.450;2023-02-28T17:04:47;8.90;44.20
25937;DHT22;13733;51.178;4.450;2023-02-28T17:07:15;8.90;44.60
25937;DHT22;13733;51.178;4.450;2023-02-28T17:09:43;8.80;45.20
25937;DHT22;13733;51.178;4.450;2023-02-28T17:12:09;8.70;45.40
25937;DHT22;13733;51.178;4.450;2023-02-28T17:14:36;8.70;46.10
25937;DHT22;13733;51.178;4.450;2023-02-28T17:17:04;8.50;46.00
25937;DHT22;13733;51.178;4.450;2023-02-28T17:19:33;8.50;47.00
25937;DHT22;13733;51.178;4.450;2023-02-28T17:22:02;8.40;47.60
25937;DHT22;13733;51.178;4.450;2023-02-28T17:24:28;8.30;48.00
25937;DHT22;13733;51.178;4.450;2023-02-28T17:26:54;8.30;48.70
25937;DHT22;13733;51.178;4.450;2023-02-28T17:29:21;8.20;49.20
25937;DHT22;13733;51.178;4.450;2023-02-28T17:31:47;8.10;49.30
25937;DHT22;13733;51.178;4.450;2023-02-28T17:34:13;8.00;49.90
25937;DHT22;13733;51.178;4.450;2023-02-28T17:36:44;7.90;50.90
25937;DHT22;13733;51.178;4.450;2023-02-28T17:39:11;7.90;51.30
25937;DHT22;13733;51.178;4.450;2023-02-28T17:41:42;7.80;52.00
25937;DHT22;13733;51.178;4.450;2023-02-28T17:44:08;7.70;52.80
25937;DHT22;13733;51.178;4.450;2023-02-28T17:46:34;7.70;53.30
25937;DHT22;13733;51.178;4.450;2023-02-28T17:49:01;7.60;54.00
25937;DHT22;13733;51.178;4.450;2023-02-28T17:51:26;7.50;54.50
25937;DHT22;13733;51.178;4.450;2023-02-28T17:53:53;7.40;55.00
25937;DHT22;13733;51.178;4.450;2023-02-28T17:56:23;7.40;55.40
25937;DHT22;13733;51.178;4.450;2023-02-28T17:58:52;7.40;55.80
25937;DHT22;13733;51.178;4.450;2023-02-28T18:01:18;7.30;56.40
25937;DHT22;13733;51.178;4.450;2023-02-28T18:03:46;7.20;57.00
25937;DHT22;13733;51.178;4.450;2023-02-28T18:06:16;7.10;57.30
25937;DHT22;13733;51.178;4.450;2023-02-28T18:08:44;7.00;58.60
25937;DHT22;13733;51.178;4.450;2023-02-28T18:11:10;6.80;59.50
25937;DHT22;13733;51.178;4.450;2023-02-28T18:13:50;6.80;60.30
25937;DHT22;13733;51.178;4.450;2023-02-28T18:16:17;6.70;60.70
25937;DHT22;13733;51.178;4.450;2023-02-28T18:18:44;6.60;61.60
25937;DHT22;13733;51.178;4.450;2023-02-28T18:21:11;6.50;62.70
25937;DHT22;13733;51.178;4.450;2023-02-28T18:23:38;6.50;62.70
25937;DHT22;13733;51.178;4.450;2023-02-28T18:26:13;6.40;63.40
25937;DHT22;13733;51.178;4.450;2023-02-28T18:28:39;6.40;63.90